createdAt,value
2019-03-17T00:01:57.873Z,44.50
2019-03-17T00:08:56.854Z,45.50
2019-03-17T00:21:39.977Z,46.30
2019-03-17T00:24:08.606Z,46.20
2019-03-17T00:26:37.764Z,46.20
2019-03-17T00:29:06.850Z,46.20
2019-03-17T00:31:36.178Z,46.60
2019-03-17T00:34:04.876Z,46.20
2019-03-17T00:36:34.234Z,46.20
2019-03-17T00:39:04.367Z,46.00
2019-03-17T00:41:33.253Z,45.90
2019-03-17T00:44:02.066Z,45.90
2019-03-17T00:46:31.654Z,45.90
2019-03-17T00:49:00.693Z,45.80
2019-03-17T00:51:29.522Z,45.80
2019-03-17T00:53:58.024Z,45.70
2019-03-17T00:56:26.674Z,45.20
2019-03-17T00:58:55.472Z,45.60
2019-03-17T01:01:24.060Z,45.20
2019-03-17T01:03:52.784Z,45.60
2019-03-17T01:06:21.979Z,45.10
2019-03-17T01:08:50.935Z,45.40
2019-03-17T01:11:19.479Z,45.00
2019-03-17T01:13:48.480Z,45.40
2019-03-17T01:16:17.395Z,45.00
2019-03-17T01:18:46.449Z,45.40
2019-03-17T01:24:36.536Z,45.30
2019-03-17T01:27:05.562Z,44.90
2019-03-17T01:29:34.297Z,45.30
2019-03-17T01:32:03.083Z,44.90
2019-03-17T01:34:31.981Z,45.20
2019-03-17T01:37:01.160Z,45.20
2019-03-17T01:39:30.094Z,45.60
2019-03-17T01:41:59.706Z,45.20
2019-03-17T01:44:28.968Z,45.20
2019-03-17T01:46:58.161Z,45.10
2019-03-17T01:49:27.035Z,45.10
2019-03-17T01:51:55.942Z,45.20
2019-03-17T01:54:25.693Z,45.10
2019-03-17T01:56:55.875Z,45.10
2019-03-17T01:59:24.509Z,45.00
2019-03-17T02:15:55.277Z,45.10
2019-03-17T02:18:24.338Z,44.80
2019-03-17T02:20:53.010Z,45.30
2019-03-17T02:23:21.617Z,45.50
2019-03-17T02:25:50.467Z,45.50
2019-03-17T02:28:19.220Z,45.50
2019-03-17T02:30:48.635Z,45.60
2019-03-17T02:36:22.172Z,45.10
2019-03-17T04:05:44.453Z,45.30
2019-03-17T04:08:13.430Z,45.60
2019-03-17T04:10:42.244Z,45.70
2019-03-17T04:13:11.069Z,45.70
2019-03-17T04:15:39.907Z,45.60
2019-03-17T04:18:08.486Z,45.50
2019-03-17T04:20:37.619Z,45.50
2019-03-17T04:23:06.330Z,45.70
2019-03-17T04:25:34.801Z,45.10
2019-03-17T04:28:03.906Z,45.10
2019-03-17T04:30:32.838Z,45.00
2019-03-17T04:33:01.737Z,45.30
2019-03-17T04:35:30.752Z,44.80
2019-03-17T04:37:59.345Z,44.80
2019-03-17T04:40:28.264Z,44.60
2019-03-17T04:42:57.064Z,44.60
2019-03-17T04:45:25.776Z,44.50
2019-03-17T04:47:54.382Z,44.40
2019-03-17T04:50:23.399Z,44.40
2019-03-17T04:52:52.018Z,44.20
2019-03-17T04:55:21.470Z,44.20
2019-03-17T04:57:49.926Z,44.10
2019-03-17T05:00:18.788Z,44.00
2019-03-17T05:02:47.322Z,44.00
2019-03-17T05:05:15.870Z,44.40
2019-03-17T05:07:45.046Z,43.90
2019-03-17T05:10:13.990Z,43.80
2019-03-17T05:12:42.536Z,43.80
2019-03-17T05:15:11.694Z,43.90
2019-03-17T05:17:40.222Z,44.10
2019-03-17T05:20:10.658Z,43.90
2019-03-17T05:22:39.413Z,43.90
2019-03-17T05:25:08.588Z,44.00
2019-03-17T05:27:37.575Z,44.00
2019-03-17T05:30:09.230Z,44.00
2019-03-17T05:32:37.806Z,44.00
2019-03-17T05:35:07.805Z,43.90
2019-03-17T05:37:36.368Z,43.80
2019-03-17T05:40:10.122Z,43.60
2019-03-17T05:42:40.683Z,43.50
2019-03-17T05:45:10.059Z,43.40
2019-03-17T05:47:39.061Z,43.50
2019-03-17T05:50:09.169Z,43.30
2019-03-17T05:52:38.275Z,43.30
2019-03-17T05:55:09.022Z,43.30
2019-03-17T05:57:37.854Z,43.40
2019-03-17T06:00:12.613Z,43.50
2019-03-17T06:02:41.812Z,43.60
2019-03-17T06:05:11.092Z,43.70
2019-03-17T06:07:39.861Z,43.70
2019-03-17T06:10:08.865Z,43.80
2019-03-17T06:12:37.376Z,43.90
2019-03-17T06:15:11.481Z,43.90
2019-03-17T06:17:40.358Z,44.00
2019-03-17T06:20:10.921Z,44.00
2019-03-17T06:22:40.094Z,44.00
2019-03-17T06:25:09.957Z,44.10
2019-03-17T06:27:38.673Z,44.00
2019-03-17T06:30:13.731Z,44.10
2019-03-17T06:32:43.090Z,44.10
2019-03-17T06:35:12.411Z,44.00
2019-03-17T06:37:41.579Z,44.10
2019-03-17T06:40:12.413Z,44.00
2019-03-17T06:42:41.573Z,43.90
2019-03-17T06:45:11.215Z,44.20
2019-03-17T06:47:39.998Z,43.70
2019-03-17T06:50:11.628Z,43.60
2019-03-17T06:52:40.725Z,43.40
2019-03-17T06:55:12.376Z,43.20
2019-03-17T06:57:41.686Z,42.70
2019-03-17T07:00:12.603Z,42.80
2019-03-17T07:02:41.156Z,42.40
2019-03-17T07:05:11.065Z,42.30
2019-03-17T07:07:44.319Z,42.40
2019-03-17T07:10:11.728Z,42.40
2019-03-17T07:12:40.247Z,42.30
2019-03-17T07:15:12.673Z,42.30
2019-03-17T07:17:41.516Z,42.40
2019-03-17T07:20:12.669Z,42.40
2019-03-17T07:22:41.727Z,42.40
2019-03-17T07:25:10.951Z,42.30
2019-03-17T07:27:39.665Z,42.00
2019-03-17T07:30:13.640Z,42.10
2019-03-17T07:32:42.670Z,41.90
2019-03-17T07:35:11.415Z,41.90
2019-03-17T07:37:40.324Z,41.50
2019-03-17T07:40:11.522Z,41.40
2019-03-17T07:42:40.624Z,41.40
2019-03-17T07:45:10.861Z,41.10
2019-03-17T07:47:39.840Z,40.90
2019-03-17T07:50:11.111Z,41.00
2019-03-17T07:52:40.076Z,40.90
2019-03-17T07:55:09.846Z,40.80
2019-03-17T07:57:38.802Z,40.70
2019-03-17T08:00:10.802Z,40.70
2019-03-17T08:02:40.117Z,40.50
2019-03-17T08:05:10.330Z,40.60
2019-03-17T08:07:39.982Z,40.60
2019-03-17T08:10:13.779Z,40.50
2019-03-17T08:12:42.709Z,40.60
2019-03-17T08:15:13.784Z,40.70
2019-03-17T08:17:43.094Z,40.70
2019-03-17T08:20:13.314Z,40.80
2019-03-17T08:22:42.653Z,40.90
2019-03-17T08:25:12.833Z,40.70
2019-03-17T08:27:42.220Z,40.70
2019-03-17T08:30:16.118Z,40.60
2019-03-17T08:32:45.077Z,40.60
2019-03-17T08:35:14.750Z,40.50
2019-03-17T08:37:43.461Z,40.30
2019-03-17T08:40:20.306Z,40.20
2019-03-17T08:42:49.056Z,40.10
2019-03-17T08:45:19.158Z,40.10
2019-03-17T08:47:57.793Z,40.00
2019-03-17T08:50:19.297Z,39.90
2019-03-17T08:52:47.887Z,39.90
2019-03-17T08:55:16.729Z,39.20
2019-03-17T08:57:46.190Z,36.70
2019-03-17T09:00:19.970Z,36.90
2019-03-17T09:02:49.276Z,36.00
2019-03-17T09:05:18.465Z,34.00
2019-03-17T09:07:51.090Z,34.60
2019-03-17T09:10:21.238Z,34.00
2019-03-17T09:12:50.266Z,32.80
2019-03-17T09:15:19.643Z,33.20
2019-03-17T09:17:50.694Z,33.10
2019-03-17T09:20:19.924Z,32.80
2019-03-17T09:22:49.671Z,33.00
2019-03-17T09:25:18.405Z,33.40
2019-03-17T09:27:47.742Z,33.20
2019-03-17T09:30:18.542Z,32.60
2019-03-17T09:32:47.806Z,32.00
2019-03-17T09:35:16.570Z,32.00
2019-03-17T09:37:45.588Z,32.00
2019-03-17T09:40:16.548Z,32.00
2019-03-17T09:42:45.169Z,31.70
2019-03-17T09:45:15.013Z,31.90
2019-03-17T09:47:44.018Z,31.60
2019-03-17T09:50:21.546Z,32.00
2019-03-17T09:52:50.461Z,31.30
2019-03-17T09:55:19.472Z,31.00
2019-03-17T09:57:48.357Z,30.80
2019-03-17T10:00:21.478Z,30.80
2019-03-17T10:02:50.225Z,30.70
2019-03-17T10:05:19.329Z,30.20
2019-03-17T10:07:47.956Z,30.20
2019-03-17T10:10:21.517Z,30.50
2019-03-17T10:12:50.645Z,30.90
2019-03-17T10:15:20.061Z,30.50
2019-03-17T10:17:49.411Z,30.90
2019-03-17T10:20:20.469Z,30.90
2019-03-17T10:22:49.227Z,31.10
2019-03-17T10:25:18.559Z,30.70
2019-03-17T10:27:47.701Z,30.50
2019-03-17T10:30:20.492Z,29.90
2019-03-17T10:32:59.270Z,30.30
2019-03-17T10:35:51.553Z,30.00
2019-03-17T10:38:20.104Z,29.90
2019-03-17T10:40:48.723Z,30.00
2019-03-17T10:43:19.077Z,30.00
2019-03-17T10:45:51.755Z,30.00
2019-03-17T10:48:20.646Z,30.30
2019-03-17T10:50:50.108Z,29.90
2019-03-17T10:53:19.950Z,30.10
2019-03-17T10:55:48.667Z,30.00
2019-03-17T10:58:17.823Z,29.60
2019-03-17T11:00:46.440Z,29.70
2019-03-17T11:03:15.301Z,30.00
2019-03-17T11:05:45.179Z,30.20
2019-03-17T11:08:14.336Z,30.30
2019-03-17T11:10:43.073Z,30.20
2019-03-17T11:13:12.084Z,29.90
2019-03-17T11:15:41.300Z,29.60
2019-03-17T11:18:10.275Z,29.60
2019-03-17T11:20:39.639Z,29.60
2019-03-17T11:23:08.675Z,30.00
2019-03-17T11:25:37.822Z,29.40
2019-03-17T11:28:06.850Z,29.50
2019-03-17T11:30:35.689Z,29.60
2019-03-17T11:33:05.207Z,29.60
2019-03-17T11:35:35.219Z,29.70
2019-03-17T11:38:05.413Z,30.00
2019-03-17T11:40:35.181Z,29.90
2019-03-17T11:43:04.213Z,29.80
2019-03-17T11:45:34.021Z,29.80
2019-03-17T11:48:03.141Z,29.90
2019-03-17T11:50:32.079Z,30.00
2019-03-17T11:53:00.912Z,29.90
2019-03-17T11:55:31.815Z,29.80
2019-03-17T11:58:00.655Z,29.50
2019-03-17T12:00:29.730Z,29.50
2019-03-17T12:02:59.090Z,29.50
2019-03-17T12:05:28.252Z,29.60
2019-03-17T12:07:57.020Z,29.80
2019-03-17T12:10:25.989Z,29.90
2019-03-17T12:12:55.731Z,29.90
2019-03-17T12:15:35.200Z,29.80
2019-03-17T12:18:04.251Z,29.90
2019-03-17T12:20:33.892Z,29.50
2019-03-17T12:23:02.932Z,29.70
2019-03-17T12:25:32.256Z,29.80
2019-03-17T12:28:01.165Z,29.80
2019-03-17T12:30:30.799Z,29.80
2019-03-17T12:33:00.557Z,29.60
2019-03-17T12:35:29.677Z,29.30
2019-03-17T12:37:58.378Z,29.10
2019-03-17T12:40:27.869Z,29.30
2019-03-17T12:42:56.541Z,29.10
2019-03-17T12:45:25.236Z,29.20
2019-03-17T12:47:54.127Z,29.50
2019-03-17T12:50:27.159Z,29.60
2019-03-17T12:52:56.111Z,29.80
2019-03-17T12:55:25.072Z,29.80
2019-03-17T12:57:54.438Z,29.90
2019-03-17T13:00:27.154Z,30.00
2019-03-17T13:02:55.880Z,29.90
2019-03-17T13:05:24.479Z,29.90
2019-03-17T13:07:53.446Z,29.90
2019-03-17T13:10:22.790Z,29.80
2019-03-17T13:12:52.300Z,29.70
2019-03-17T13:15:21.455Z,29.60
2019-03-17T13:17:50.202Z,29.80
2019-03-17T13:20:20.413Z,29.80
2019-03-17T13:22:49.670Z,29.60
2019-03-17T13:25:19.163Z,29.70
2019-03-17T13:27:48.250Z,30.00
2019-03-17T13:30:17.791Z,29.90
2019-03-17T13:32:46.833Z,30.00
2019-03-17T13:35:16.386Z,30.10
2019-03-17T13:37:45.073Z,30.30
2019-03-17T13:40:29.538Z,30.40
2019-03-17T13:42:51.519Z,30.60
2019-03-17T13:45:20.644Z,30.80
2019-03-17T13:47:49.329Z,30.80
2019-03-17T13:50:19.351Z,31.00
2019-03-17T13:52:48.038Z,31.10
2019-03-17T13:55:16.618Z,31.20
2019-03-17T13:57:54.064Z,31.50
2019-03-17T14:00:23.115Z,31.40
2019-03-17T14:02:53.137Z,31.90
2019-03-17T14:05:21.798Z,32.10
2019-03-17T14:07:50.990Z,32.20
2019-03-17T14:10:20.327Z,32.50
2019-03-17T14:12:49.387Z,32.60
2019-03-17T14:15:19.299Z,32.70
2019-03-17T14:17:49.460Z,32.80
2019-03-17T14:20:24.432Z,33.10
2019-03-17T14:22:53.396Z,33.20
2019-03-17T14:25:31.663Z,33.30
2019-03-17T14:28:01.630Z,33.40
2019-03-17T14:30:30.536Z,33.50
2019-03-17T14:32:59.145Z,33.60
2019-03-17T14:35:28.198Z,33.40
2019-03-17T14:37:57.594Z,33.80
2019-03-17T14:40:28.158Z,33.70
2019-03-17T14:42:56.817Z,33.90
2019-03-17T14:45:25.895Z,33.50
2019-03-17T14:47:55.106Z,33.70
2019-03-17T14:50:25.041Z,33.50
2019-03-17T14:52:54.295Z,33.90
2019-03-17T14:55:23.444Z,34.00
2019-03-17T14:57:52.181Z,34.20
2019-03-17T15:00:24.715Z,34.00
2019-03-17T15:02:53.613Z,33.90
2019-03-17T15:05:25.190Z,34.20
2019-03-17T15:07:53.255Z,34.60
2019-03-17T15:10:26.066Z,35.00
2019-03-17T15:12:54.820Z,34.90
2019-03-17T15:15:23.821Z,35.60
2019-03-17T15:17:53.458Z,35.30
2019-03-17T15:20:25.949Z,36.30
2019-03-17T15:22:55.079Z,36.70
2019-03-17T15:25:23.990Z,37.10
2019-03-17T15:27:52.657Z,37.50
2019-03-17T15:30:25.931Z,37.80
2019-03-17T15:32:54.481Z,38.10
2019-03-17T15:35:23.680Z,38.00
2019-03-17T15:37:52.627Z,38.40
2019-03-17T15:40:22.656Z,39.10
2019-03-17T15:42:51.867Z,39.20
2019-03-17T15:45:24.113Z,39.40
2019-03-17T15:47:53.447Z,39.50
2019-03-17T15:50:29.466Z,39.70
2019-03-17T15:52:58.243Z,39.80
2019-03-17T15:55:27.147Z,40.10
2019-03-17T15:57:56.347Z,40.20
2019-03-17T16:00:27.140Z,40.50
2019-03-17T16:02:56.096Z,40.40
2019-03-17T16:05:24.908Z,40.30
2019-03-17T16:07:53.877Z,40.90
2019-03-17T16:10:32.775Z,40.50
2019-03-17T16:13:02.372Z,40.40
2019-03-17T16:15:31.612Z,40.50
2019-03-17T16:18:00.503Z,40.20
2019-03-17T16:20:29.226Z,40.10
2019-03-17T16:22:57.887Z,40.50
2019-03-17T16:25:28.939Z,40.60
2019-03-17T16:27:57.794Z,40.60
2019-03-17T16:30:30.930Z,40.60
2019-03-17T16:33:03.364Z,40.40
2019-03-17T16:35:32.351Z,40.30
2019-03-17T16:38:00.864Z,40.40
2019-03-17T16:40:31.335Z,40.30
2019-03-17T16:43:01.197Z,40.30
2019-03-17T16:45:30.382Z,40.30
2019-03-17T16:47:59.295Z,40.50
2019-03-17T16:50:27.885Z,40.20
2019-03-17T16:52:57.125Z,40.30
2019-03-17T16:55:26.468Z,40.30
2019-03-17T16:57:55.307Z,40.20
2019-03-17T17:00:25.053Z,40.20
2019-03-17T17:02:53.846Z,40.20
2019-03-17T17:05:24.149Z,40.10
2019-03-17T17:07:58.103Z,40.50
2019-03-17T17:10:29.892Z,40.00
2019-03-17T17:12:58.705Z,39.90
2019-03-17T17:15:35.214Z,39.90
2019-03-17T17:18:04.616Z,39.90
2019-03-17T17:20:41.670Z,40.00
2019-03-17T17:23:10.462Z,40.00
2019-03-17T17:25:39.134Z,40.00
2019-03-17T17:28:08.288Z,40.20
2019-03-17T17:30:37.564Z,39.80
2019-03-17T17:33:06.530Z,39.70
2019-03-17T17:35:35.458Z,39.60
2019-03-17T17:38:04.976Z,39.60
2019-03-17T17:40:33.720Z,39.80
2019-03-17T17:43:02.796Z,39.70
2019-03-17T17:45:31.742Z,39.80
2019-03-17T17:48:00.426Z,39.90
2019-03-17T17:50:33.113Z,40.00
2019-03-17T17:53:02.190Z,40.20
2019-03-17T17:55:31.752Z,40.20
2019-03-17T17:58:01.062Z,40.30
2019-03-17T18:00:44.660Z,40.40
2019-03-17T18:03:13.517Z,40.80
2019-03-17T18:05:42.319Z,40.50
2019-03-17T18:08:11.423Z,40.50
2019-03-17T18:10:40.410Z,40.60
2019-03-17T18:13:09.703Z,40.20
2019-03-17T18:15:38.865Z,40.60
2019-03-17T18:18:07.680Z,40.60
2019-03-17T18:20:37.058Z,40.60
2019-03-17T18:23:17.415Z,40.80
2019-03-17T18:25:37.050Z,40.60
2019-03-17T18:28:06.393Z,40.70
2019-03-17T18:30:35.515Z,40.90
2019-03-17T18:33:04.553Z,41.00
2019-03-17T18:35:33.786Z,41.10
2019-03-17T18:38:02.798Z,41.10
2019-03-17T18:40:31.932Z,41.20
2019-03-17T18:43:00.515Z,41.20
2019-03-17T18:45:35.104Z,41.30
2019-03-17T18:48:03.766Z,41.60
2019-03-17T18:50:33.186Z,41.50
2019-03-17T18:53:01.928Z,41.50
2019-03-17T18:55:30.645Z,41.50
2019-03-17T18:57:59.601Z,41.60
2019-03-17T19:00:29.302Z,41.80
2019-03-17T19:02:57.838Z,41.70
2019-03-17T19:05:27.070Z,41.90
2019-03-17T19:07:55.923Z,41.80
2019-03-17T19:10:24.539Z,41.80
2019-03-17T19:12:53.414Z,41.80
2019-03-17T19:15:23.499Z,41.90
2019-03-17T19:17:52.933Z,42.30
2019-03-17T19:20:22.924Z,41.80
2019-03-17T19:22:51.962Z,41.80
2019-03-17T19:25:26.629Z,41.90
2019-03-17T19:27:56.009Z,41.90
2019-03-17T19:30:25.434Z,41.90
2019-03-17T19:32:53.950Z,42.00
2019-03-17T19:35:23.259Z,42.00
2019-03-17T19:37:52.971Z,42.00
2019-03-17T19:40:26.015Z,41.90
2019-03-17T19:42:59.130Z,41.70
2019-03-17T19:45:25.959Z,41.60
2019-03-17T19:47:54.928Z,41.70
2019-03-17T19:50:24.771Z,41.70
2019-03-17T19:52:53.847Z,41.70
2019-03-17T19:55:22.585Z,41.80
2019-03-17T19:57:51.521Z,41.70
2019-03-17T20:00:21.904Z,41.80
2019-03-17T20:02:50.864Z,41.90
2019-03-17T20:05:20.611Z,41.90
2019-03-17T20:07:50.051Z,42.00
2019-03-17T20:10:29.603Z,42.10
2019-03-17T20:13:10.989Z,42.30
2019-03-17T20:15:29.982Z,42.20
2019-03-17T20:17:59.397Z,42.30
2019-03-17T20:20:28.103Z,42.40
2019-03-17T20:22:56.867Z,42.60
2019-03-17T20:25:25.895Z,42.70
2019-03-17T20:27:55.103Z,42.70
2019-03-17T20:30:24.015Z,42.70
2019-03-17T20:32:52.746Z,42.70
2019-03-17T20:35:21.925Z,42.90
2019-03-17T20:37:51.646Z,43.00
2019-03-17T20:40:20.498Z,43.20
2019-03-17T20:42:49.932Z,43.10
2019-03-17T20:45:20.421Z,42.90
2019-03-17T20:47:48.920Z,42.70
2019-03-17T20:50:20.638Z,42.50
2019-03-17T20:52:49.551Z,42.80
2019-03-17T20:55:18.889Z,42.90
2019-03-17T20:57:48.535Z,43.00
2019-03-17T21:00:18.692Z,43.30
2019-03-17T21:02:47.762Z,43.20
2019-03-17T21:05:17.097Z,43.20
2019-03-17T21:07:46.505Z,43.00
2019-03-17T21:10:16.687Z,42.80
2019-03-17T21:12:45.286Z,43.00
2019-03-17T21:15:18.388Z,43.00
2019-03-17T21:17:47.930Z,43.10
2019-03-17T21:20:24.666Z,43.10
2019-03-17T21:22:54.029Z,42.90
2019-03-17T21:25:23.298Z,42.80
2019-03-17T21:27:52.186Z,42.80
2019-03-17T21:30:22.585Z,42.80
2019-03-17T21:32:51.176Z,42.90
2019-03-17T21:35:19.874Z,43.00
2019-03-17T21:37:50.310Z,43.10
2019-03-17T21:40:18.938Z,43.00
2019-03-17T21:42:47.774Z,42.90
2019-03-17T21:45:16.870Z,43.00
2019-03-17T21:47:46.393Z,42.90
2019-03-17T21:50:20.281Z,42.80
2019-03-17T21:52:49.370Z,42.80
2019-03-17T21:55:18.653Z,42.70
2019-03-17T21:57:47.717Z,42.70
2019-03-17T22:00:20.429Z,42.70
2019-03-17T22:02:55.152Z,42.70
2019-03-17T22:05:24.875Z,42.50
2019-03-17T22:07:54.116Z,42.40
2019-03-17T22:10:23.407Z,42.30
2019-03-17T22:12:52.444Z,42.40
2019-03-17T22:15:21.367Z,42.20
2019-03-17T22:17:49.988Z,41.90
2019-03-17T22:20:18.786Z,41.70
2019-03-17T22:22:47.845Z,41.60
2019-03-17T22:25:17.496Z,41.40
2019-03-17T22:27:46.404Z,41.40
2019-03-17T22:30:16.932Z,41.20
2019-03-17T22:32:45.821Z,41.30
2019-03-17T22:35:14.909Z,41.30
2019-03-17T22:37:44.678Z,41.50
2019-03-17T22:40:17.582Z,41.50
2019-03-17T22:42:46.694Z,41.50
2019-03-17T22:45:19.056Z,41.60
2019-03-17T22:47:47.851Z,41.60
2019-03-17T22:50:19.698Z,41.60
2019-03-17T22:52:48.432Z,41.50
2019-03-17T22:55:17.768Z,41.40
2019-03-17T22:57:46.878Z,41.10
2019-03-17T23:00:19.154Z,41.00
2019-03-17T23:02:48.133Z,40.90
2019-03-17T23:05:16.819Z,40.60
2019-03-17T23:07:45.402Z,40.70
2019-03-17T23:10:14.449Z,40.70
2019-03-17T23:12:44.024Z,40.80
2019-03-17T23:15:13.546Z,40.80
2019-03-17T23:17:42.849Z,40.90
2019-03-17T23:20:13.563Z,40.90
2019-03-17T23:22:42.499Z,40.70
2019-03-17T23:25:11.900Z,40.80
2019-03-17T23:27:40.628Z,40.80
2019-03-17T23:30:14.385Z,40.90
2019-03-17T23:32:43.583Z,40.90
2019-03-17T23:35:12.548Z,40.70
2019-03-17T23:37:41.554Z,41.00
2019-03-17T23:40:13.090Z,40.70
2019-03-17T23:42:42.102Z,40.70
2019-03-17T23:45:12.345Z,40.30
2019-03-17T23:47:41.468Z,40.20
2019-03-17T23:50:12.506Z,40.40
2019-03-17T23:52:42.190Z,40.50
2019-03-17T23:55:12.465Z,40.40
2019-03-17T23:57:41.303Z,40.50
